Time;durP1;ratioP1;P1;durP2;ratioP2;P2;SDS_P1;SDS_P2;PMS_P1;PMS_P2;Temp;Humidity;BMP_temperature;BMP_pressure;BME280_temperature;BME280_humidity;BME280_pressure;Samples;Min_cycle;Max_cycle;Signal;HPM_P1;HPM_P2
2022/10/13 00:00:26;;;;;;;26.92;15.98;;;10.20;99.90;;;;;;5034205;28;20375;-64
2022/10/13 00:02:53;;;;;;;25.80;16.30;;;10.20;99.90;;;;;;5033546;28;20072;-64
2022/10/13 00:05:18;;;;;;;25.35;17.00;;;10.20;99.90;;;;;;5034428;28;20049;-64
2022/10/13 00:07:44;;;;;;;31.27;15.93;;;10.20;99.90;;;;;;5035272;28;20041;-64
2022/10/13 00:10:10;;;;;;;26.55;16.52;;;10.20;99.90;;;;;;5034393;28;20042;-64
2022/10/13 00:12:37;;;;;;;22.88;16.30;;;10.20;99.90;;;;;;5033669;28;20045;-64
2022/10/13 00:15:05;;;;;;;24.15;15.88;;;10.20;99.90;;;;;;5033548;28;20508;-64
2022/10/13 00:17:31;;;;;;;25.77;17.45;;;10.20;99.90;;;;;;5032668;28;20096;-64
2022/10/13 00:19:57;;;;;;;22.95;15.00;;;10.20;99.90;;;;;;5033295;28;20045;-64
2022/10/13 00:22:22;;;;;;;26.98;16.80;;;10.20;99.90;;;;;;5034870;28;20041;-64
2022/10/13 00:24:52;;;;;;;30.88;17.27;;;10.20;99.90;;;;;;5032542;28;20146;-64
2022/10/13 00:27:18;;;;;;;21.17;15.23;;;10.20;99.90;;;;;;5034542;28;20045;-64
2022/10/13 00:29:44;;;;;;;27.50;17.05;;;10.20;99.90;;;;;;5033553;28;20615;-63
2022/10/13 00:32:09;;;;;;;31.75;17.95;;;10.30;99.90;;;;;;5032911;28;20135;-63
2022/10/13 00:34:38;;;;;;;32.13;17.75;;;10.30;99.90;;;;;;5032953;28;20124;-64
2022/10/13 00:37:04;;;;;;;22.17;15.60;;;10.30;99.90;;;;;;5033056;28;20156;-64
2022/10/13 00:39:31;;;;;;;28.42;15.82;;;10.30;99.90;;;;;;5032408;28;20120;-63
2022/10/13 00:41:57;;;;;;;25.23;17.08;;;10.30;99.90;;;;;;5032200;28;20053;-64
2022/10/13 00:44:51;;;;;;;26.33;16.67;;;10.30;99.90;;;;;;5033360;28;20049;-64
2022/10/13 00:47:18;;;;;;;27.08;15.68;;;10.30;99.90;;;;;;5032306;28;20498;-64
2022/10/13 00:49:44;;;;;;;26.90;15.48;;;10.30;99.90;;;;;;5033508;28;20068;-64
2022/10/13 00:52:10;;;;;;;26.35;16.92;;;10.30;99.90;;;;;;5032590;28;20045;-64
2022/10/13 00:54:36;;;;;;;25.30;17.98;;;10.30;99.90;;;;;;5032619;28;20037;-64
2022/10/13 00:57:03;;;;;;;27.95;15.93;;;10.30;99.90;;;;;;5033933;28;20042;-64
2022/10/13 00:59:29;;;;;;;26.70;16.77;;;10.30;99.90;;;;;;5031903;28;20089;-64
2022/10/13 01:01:57;;;;;;;31.30;17.65;;;10.30;99.90;;;;;;5032980;28;20081;-63
2022/10/13 01:04:25;;;;;;;30.08;18.63;;;10.30;99.90;;;;;;5032758;28;20156;-63
2022/10/13 01:06:52;;;;;;;24.40;15.85;;;10.30;99.90;;;;;;5032217;28;20506;-63
2022/10/13 01:09:18;;;;;;;28.52;16.70;;;10.30;99.90;;;;;;5034030;28;20037;-63
2022/10/13 01:12:19;;;;;;;25.67;16.48;;;10.30;99.90;;;;;;5034092;28;20037;-63
2022/10/13 01:15:04;;;;;;;32.78;18.33;;;10.30;99.90;;;;;;5048550;28;20156;-64
2022/10/13 01:17:44;;;;;;;25.60;17.33;;;10.30;99.90;;;;;;5033592;28;20053;-63
2022/10/13 01:20:31;;;;;;;30.23;17.23;;;10.30;99.90;;;;;;5032801;28;20046;-64
2022/10/13 01:23:21;;;;;;;29.33;17.25;;;10.30;99.90;;;;;;5033396;28;20494;-64
2022/10/13 01:26:01;;;;;;;26.65;17.42;;;10.30;99.90;;;;;;5033222;28;20057;-64
2022/10/13 01:28:36;;;;;;;30.90;17.52;;;10.30;99.90;;;;;;5032691;28;20096;-63
2022/10/13 01:31:13;;;;;;;21.43;15.13;;;10.30;99.90;;;;;;5033600;28;20098;-64
2022/10/13 01:33:44;;;;;;;29.65;18.67;;;10.30;99.90;;;;;;5032184;28;20304;-64
2022/10/13 01:36:31;;;;;;;27.17;16.90;;;10.30;99.90;;;;;;5031801;28;20398;-64
2022/10/13 01:39:05;;;;;;;27.55;17.00;;;10.30;99.90;;;;;;5032914;28;20121;-64
2022/10/13 01:41:40;;;;;;;29.75;18.80;;;10.30;99.90;;;;;;5032669;28;20433;-64
2022/10/13 01:44:33;;;;;;;25.98;18.27;;;10.30;99.90;;;;;;5031747;28;20071;-63
2022/10/13 01:47:01;;;;;;;25.92;15.45;;;10.30;99.90;;;;;;5033265;28;20044;-64
2022/10/13 01:49:31;;;;;;;28.95;18.73;;;10.30;99.90;;;;;;5031309;28;20424;-64
2022/10/13 01:52:05;;;;;;;25.73;17.00;;;10.30;99.90;;;;;;5033276;28;20037;-63
2022/10/13 01:54:32;;;;;;;26.03;16.47;;;10.30;99.90;;;;;;5031624;28;20048;-63
2022/10/13 01:56:57;;;;;;;27.00;16.20;;;10.30;99.90;;;;;;5030812;28;20079;-63
2022/10/13 01:59:26;;;;;;;25.20;18.08;;;10.30;99.90;;;;;;5032971;28;20041;-64
2022/10/13 02:02:10;;;;;;;25.35;17.20;;;10.30;99.90;;;;;;5031731;28;20402;-63
2022/10/13 02:04:54;;;;;;;30.15;16.50;;;10.30;99.90;;;;;;5032077;28;20049;-63
2022/10/13 02:07:30;;;;;;;31.43;17.37;;;10.30;99.90;;;;;;5047968;28;20487;-64
2022/10/13 02:10:22;;;;;;;26.35;18.02;;;10.30;99.90;;;;;;5030830;28;20049;-64
2022/10/13 02:12:49;;;;;;;24.27;16.88;;;10.30;99.90;;;;;;5057815;28;20057;-64
2022/10/13 02:15:20;;;;;;;27.10;17.13;;;10.30;99.90;;;;;;5031305;28;20120;-63
2022/10/13 02:17:46;;;;;;;25.40;16.13;;;10.30;99.90;;;;;;5030525;28;20041;-63
2022/10/13 02:20:14;;;;;;;22.92;15.73;;;10.30;99.90;;;;;;5031250;28;20071;-63
2022/10/13 02:22:44;;;;;;;24.65;17.75;;;10.30;99.90;;;;;;5032513;28;20513;-63
2022/10/13 02:25:09;;;;;;;29.15;17.08;;;10.30;99.90;;;;;;5031705;28;20072;-64
2022/10/13 02:27:35;;;;;;;26.13;17.88;;;10.30;99.90;;;;;;5031321;28;20490;-63
2022/10/13 02:30:01;;;;;;;24.98;15.30;;;10.30;99.90;;;;;;5032915;28;20389;-63
2022/10/13 02:32:27;;;;;;;34.03;18.67;;;10.30;99.90;;;;;;5030238;28;20033;-63
2022/10/13 02:34:53;;;;;;;30.95;19.02;;;10.30;99.90;;;;;;5030957;28;20383;-63
2022/10/13 02:37:19;;;;;;;23.80;16.77;;;10.30;99.90;;;;;;5032171;28;20033;-63
2022/10/13 02:39:44;;;;;;;33.05;17.70;;;10.30;99.90;;;;;;5030259;28;20483;-64
2022/10/13 02:45:51;;;;;;;30.42;17.75;;;10.30;99.90;;;;;;5031343;28;20040;-63
2022/10/13 02:48:16;;;;;;;27.63;17.80;;;10.30;99.90;;;;;;5030863;28;20033;-64
2022/10/13 02:50:42;;;;;;;28.42;17.45;;;10.30;99.90;;;;;;5032173;28;20083;-64
2022/10/13 02:53:07;;;;;;;26.95;16.90;;;10.30;99.90;;;;;;5029908;28;20034;-64
2022/10/13 02:55:33;;;;;;;28.92;15.70;;;10.30;99.90;;;;;;5014279;28;20041;-64
2022/10/13 02:57:59;;;;;;;27.25;16.17;;;10.30;99.90;;;;;;5032268;28;20548;-64
2022/10/13 03:00:24;;;;;;;23.33;15.00;;;10.30;99.90;;;;;;5030242;28;20095;-63
2022/10/13 03:02:50;;;;;;;24.48;15.45;;;10.30;99.90;;;;;;5030969;28;20411;-64
2022/10/13 03:05:16;;;;;;;27.50;16.17;;;10.30;99.90;;;;;;5032184;28;20549;-63
2022/10/13 03:07:41;;;;;;;29.50;16.75;;;10.30;99.90;;;;;;5034553;28;20516;-64
2022/10/13 03:10:07;;;;;;;26.52;16.08;;;10.30;99.90;;;;;;5034764;28;20111;-64
2022/10/13 03:12:33;;;;;;;29.98;18.02;;;10.30;99.90;;;;;;5034707;28;20049;-63
2022/10/13 03:14:59;;;;;;;28.73;16.45;;;10.30;99.90;;;;;;5034052;28;20182;-63
2022/10/13 03:17:25;;;;;;;26.48;16.05;;;10.30;99.90;;;;;;5035785;28;20037;-63
2022/10/13 03:19:51;;;;;;;27.33;17.02;;;10.30;99.90;;;;;;5050534;28;20040;-63
2022/10/13 03:22:17;;;;;;;27.83;17.17;;;10.30;99.90;;;;;;5034832;28;20033;-63
2022/10/13 03:24:43;;;;;;;27.25;17.58;;;10.30;99.90;;;;;;5035877;28;20494;-63
2022/10/13 03:27:09;;;;;;;26.58;17.00;;;10.30;99.90;;;;;;5035051;28;20077;-64
2022/10/13 03:29:35;;;;;;;27.23;18.10;;;10.30;99.90;;;;;;5035577;28;20163;-63
2022/10/13 03:32:01;;;;;;;25.83;18.42;;;10.30;99.90;;;;;;5034412;28;20091;-63
2022/10/13 03:34:26;;;;;;;25.63;16.63;;;10.30;99.90;;;;;;5033440;28;20041;-63
2022/10/13 03:36:52;;;;;;;25.45;16.85;;;10.30;99.90;;;;;;5035619;28;20034;-63
2022/10/13 03:39:17;;;;;;;23.75;16.50;;;10.30;99.90;;;;;;5034123;28;20402;-63
2022/10/13 03:41:43;;;;;;;27.77;19.35;;;10.30;99.90;;;;;;5033686;28;20045;-63
2022/10/13 03:44:12;;;;;;;27.73;17.58;;;10.30;99.90;;;;;;5035293;28;20127;-63
2022/10/13 03:46:38;;;;;;;26.23;16.70;;;10.30;99.90;;;;;;5035767;28;20041;-63
2022/10/13 03:49:04;;;;;;;28.08;19.35;;;10.30;99.90;;;;;;5033212;28;20042;-63
2022/10/13 03:51:30;;;;;;;27.20;17.27;;;10.30;99.90;;;;;;5034209;28;20053;-63
2022/10/13 03:53:56;;;;;;;30.50;20.00;;;10.30;99.90;;;;;;5035204;28;20064;-64
2022/10/13 03:56:26;;;;;;;30.30;18.27;;;10.30;99.90;;;;;;5033264;28;20478;-64
2022/10/13 03:58:56;;;;;;;24.08;17.58;;;10.30;99.90;;;;;;5035063;28;20068;-64
2022/10/13 04:01:24;;;;;;;28.85;17.98;;;10.30;99.90;;;;;;5034980;28;20045;-63
2022/10/13 04:03:52;;;;;;;28.67;18.63;;;10.30;99.90;;;;;;5033096;28;20100;-64
2022/10/13 04:06:18;;;;;;;36.28;22.02;;;10.30;99.90;;;;;;5033852;28;20052;-64
2022/10/13 04:08:44;;;;;;;27.50;18.13;;;10.30;99.90;;;;;;5033584;28;20045;-63
2022/10/13 04:11:13;;;;;;;25.75;18.98;;;10.30;99.90;;;;;;5033161;28;20128;-63
2022/10/13 04:13:39;;;;;;;26.60;19.00;;;10.30;99.90;;;;;;5035349;28;20050;-63
2022/10/13 04:16:08;;;;;;;28.67;19.80;;;10.30;99.90;;;;;;5033299;28;20486;-63
2022/10/13 04:18:34;;;;;;;30.70;19.35;;;10.30;99.90;;;;;;5033621;28;20037;-63
2022/10/13 04:21:00;;;;;;;30.70;18.92;;;10.30;99.90;;;;;;5033541;28;20509;-63
2022/10/13 04:23:25;;;;;;;29.35;21.33;;;10.30;99.90;;;;;;5033896;28;20033;-63
2022/10/13 04:25:51;;;;;;;32.58;21.83;;;10.30;99.90;;;;;;5033290;28;20053;-63
2022/10/13 04:28:17;;;;;;;29.27;21.42;;;10.40;99.90;;;;;;5033291;28;20057;-63
2022/10/13 04:30:42;;;;;;;28.95;21.42;;;10.30;99.90;;;;;;5032823;28;20148;-63
2022/10/13 04:33:08;;;;;;;28.65;19.98;;;10.40;99.90;;;;;;5034563;28;20038;-63
2022/10/13 04:35:40;;;;;;;32.03;20.42;;;10.40;99.90;;;;;;5033197;28;20077;-63
2022/10/13 04:38:05;;;;;;;43.00;22.25;;;10.40;99.90;;;;;;5032307;28;20041;-63
2022/10/13 04:40:31;;;;;;;32.80;21.95;;;10.40;99.90;;;;;;5034408;28;20037;-63
2022/10/13 04:42:57;;;;;;;35.53;23.15;;;10.40;99.90;;;;;;5034507;28;20057;-63
2022/10/13 04:45:23;;;;;;;31.35;19.88;;;10.40;99.90;;;;;;5032580;28;20041;-63
2022/10/13 04:47:49;;;;;;;32.00;21.05;;;10.40;99.90;;;;;;5032826;28;20045;-63
2022/10/13 04:50:15;;;;;;;31.27;21.80;;;10.40;99.90;;;;;;5016647;28;20041;-63
2022/10/13 04:52:40;;;;;;;30.67;21.55;;;10.40;99.90;;;;;;5015821;28;20407;-63
2022/10/13 04:55:07;;;;;;;38.00;22.90;;;10.40;99.90;;;;;;5032747;28;20073;-63
2022/10/13 04:57:33;;;;;;;32.15;21.95;;;10.40;99.90;;;;;;5032583;28;20564;-63
2022/10/13 04:59:59;;;;;;;31.45;22.30;;;10.40;99.90;;;;;;5033512;28;20124;-63
2022/10/13 05:02:24;;;;;;;37.20;25.83;;;10.40;99.90;;;;;;5049251;28;20080;-63
2022/10/13 05:04:50;;;;;;;35.00;22.15;;;10.40;99.90;;;;;;5032459;28;20140;-63
2022/10/13 05:07:16;;;;;;;37.42;22.30;;;10.50;99.90;;;;;;5031963;28;20405;-62
2022/10/13 05:09:41;;;;;;;34.50;23.80;;;10.40;99.90;;;;;;5033058;28;20052;-63
2022/10/13 05:12:07;;;;;;;36.58;24.83;;;10.40;99.90;;;;;;5032685;28;20088;-63
2022/10/13 05:14:33;;;;;;;39.58;25.92;;;10.40;99.90;;;;;;5033514;28;20046;-63
2022/10/13 05:17:04;;;;;;;38.67;26.83;;;10.50;99.90;;;;;;5033538;28;20453;-63
2022/10/13 05:19:30;;;;;;;43.10;27.52;;;10.50;99.90;;;;;;5032793;28;20120;-63
2022/10/13 05:21:56;;;;;;;37.05;26.02;;;10.50;99.90;;;;;;5032471;28;20117;-62
2022/10/13 05:24:29;;;;;;;38.97;28.00;;;10.50;99.90;;;;;;5033515;28;20406;-62
2022/10/13 05:26:56;;;;;;;35.10;23.60;;;10.50;99.90;;;;;;5032797;28;20045;-62
2022/10/13 05:29:21;;;;;;;35.40;25.48;;;10.50;99.90;;;;;;5031411;28;20052;-62
2022/10/13 05:31:47;;;;;;;43.65;27.50;;;10.50;99.90;;;;;;5032144;28;20049;-62
2022/10/13 05:34:13;;;;;;;32.20;23.52;;;10.50;99.90;;;;;;5031223;28;20049;-62
2022/10/13 05:36:38;;;;;;;41.88;27.83;;;10.50;99.90;;;;;;5032264;28;20034;-62
2022/10/13 05:39:06;;;;;;;39.63;26.92;;;10.50;99.90;;;;;;5031947;28;20124;-62
2022/10/13 05:41:32;;;;;;;44.80;27.55;;;10.50;99.90;;;;;;5031075;28;20513;-62
2022/10/13 05:44:01;;;;;;;41.90;27.33;;;10.50;99.90;;;;;;5047815;28;20041;-62
2022/10/13 05:46:27;;;;;;;46.10;27.90;;;10.50;99.90;;;;;;5053073;28;20087;-62
2022/10/13 05:48:53;;;;;;;47.15;29.92;;;10.50;99.90;;;;;;5034104;28;20044;-62
2022/10/13 05:51:46;;;;;;;44.40;28.60;;;10.50;99.90;;;;;;5068350;28;20040;-62
2022/10/13 05:54:35;;;;;;;38.35;26.75;;;10.50;99.90;;;;;;5051409;28;20041;-62
2022/10/13 05:57:23;;;;;;;46.28;27.15;;;10.60;99.90;;;;;;5052404;28;20056;-62
2022/10/13 05:59:56;;;;;;;44.92;28.77;;;10.60;99.90;;;;;;5031252;28;20037;-62
2022/10/13 06:02:24;;;;;;;41.63;28.00;;;10.60;99.90;;;;;;5038340;28;20192;-63
2022/10/13 06:04:52;;;;;;;42.47;28.13;;;10.60;99.90;;;;;;5029200;28;20045;-63
2022/10/13 06:07:18;;;;;;;42.25;28.17;;;10.60;99.90;;;;;;5049490;28;20052;-63
2022/10/13 06:09:44;;;;;;;41.55;28.08;;;10.60;99.90;;;;;;5048390;28;20041;-62
2022/10/13 06:12:10;;;;;;;50.05;31.30;;;10.70;99.90;;;;;;5048668;28;20128;-62
2022/10/13 06:14:36;;;;;;;50.10;32.22;;;10.70;99.90;;;;;;5048433;28;20135;-63
2022/10/13 06:17:02;;;;;;;39.88;27.30;;;10.70;99.90;;;;;;5064271;28;20051;-63
2022/10/13 06:19:27;;;;;;;41.25;28.52;;;10.80;99.90;;;;;;5047052;28;20047;-63
2022/10/13 06:21:53;;;;;;;52.30;31.63;;;10.80;99.90;;;;;;5048219;28;20068;-63
2022/10/13 06:24:19;;;;;;;45.67;31.65;;;10.80;99.90;;;;;;5048871;28;20072;-64
2022/10/13 06:26:44;;;;;;;44.70;29.42;;;10.80;99.90;;;;;;5049516;28;20049;-63
2022/10/13 06:29:10;;;;;;;47.53;29.38;;;10.80;99.90;;;;;;5032037;28;20052;-63
2022/10/13 06:31:35;;;;;;;48.63;30.52;;;10.80;99.90;;;;;;5049697;28;20037;-63
2022/10/13 06:34:01;;;;;;;64.50;32.92;;;10.80;99.90;;;;;;5049874;28;20044;-63
2022/10/13 06:36:27;;;;;;;47.60;29.73;;;10.90;99.90;;;;;;5048528;28;20071;-63
2022/10/13 06:38:53;;;;;;;40.95;28.23;;;10.80;99.90;;;;;;5048643;28;20041;-64
2022/10/13 06:41:18;;;;;;;41.80;26.60;;;10.90;99.90;;;;;;5048939;28;20045;-63
2022/10/13 06:43:44;;;;;;;42.65;28.58;;;10.90;99.90;;;;;;5048705;28;20409;-64
2022/10/13 06:46:10;;;;;;;39.65;28.60;;;10.90;99.90;;;;;;5049519;28;20118;-64
2022/10/13 06:48:36;;;;;;;37.33;27.38;;;10.90;99.90;;;;;;5049764;28;20037;-64
2022/10/13 06:51:04;;;;;;;47.75;31.30;;;10.90;99.90;;;;;;5047167;28;20037;-64
2022/10/13 06:53:30;;;;;;;44.15;28.35;;;10.90;99.90;;;;;;5047441;28;20057;-64
2022/10/13 06:56:00;;;;;;;44.58;29.50;;;11.00;99.90;;;;;;5049079;28;20037;-63
2022/10/13 06:58:26;;;;;;;45.50;30.42;;;11.00;99.90;;;;;;5047277;28;20430;-63
2022/10/13 07:00:52;;;;;;;37.20;27.25;;;11.00;99.90;;;;;;5047444;28;20043;-63
2022/10/13 07:03:18;;;;;;;37.15;27.90;;;11.10;99.90;;;;;;5047285;28;20516;-63
2022/10/13 07:05:44;;;;;;;40.63;28.15;;;11.10;99.90;;;;;;5046892;28;20044;-64
2022/10/13 07:08:10;;;;;;;49.88;30.55;;;11.10;99.90;;;;;;5047837;28;20090;-64
2022/10/13 07:10:39;;;;;;;46.00;31.75;;;11.10;99.90;;;;;;5047451;28;20045;-63
2022/10/13 07:13:05;;;;;;;53.40;32.20;;;11.10;99.90;;;;;;5045617;28;20041;-64
2022/10/13 07:15:31;;;;;;;46.20;29.42;;;11.20;99.90;;;;;;5048178;28;20059;-63
2022/10/13 07:17:57;;;;;;;42.15;28.83;;;11.20;99.90;;;;;;5043506;28;20053;-64
2022/10/13 07:20:23;;;;;;;43.30;28.65;;;11.20;99.90;;;;;;5045522;28;20124;-63
2022/10/13 07:22:52;;;;;;;47.38;32.03;;;11.30;99.90;;;;;;5047768;28;20427;-62
2022/10/13 07:25:18;;;;;;;57.13;34.30;;;11.30;99.90;;;;;;5046695;28;20115;-63
2022/10/13 07:27:43;;;;;;;46.83;31.95;;;11.40;99.90;;;;;;5046989;28;20060;-63
2022/10/13 07:30:10;;;;;;;60.78;33.53;;;11.40;99.90;;;;;;5047519;28;20102;-63
2022/10/13 07:32:38;;;;;;;56.17;33.28;;;11.40;99.90;;;;;;5047287;28;20049;-64
2022/10/13 07:35:04;;;;;;;50.88;34.05;;;11.40;99.90;;;;;;5046963;28;20040;-64
2022/10/13 07:37:30;;;;;;;53.50;34.33;;;11.50;99.90;;;;;;5047195;28;20037;-64
2022/10/13 07:39:55;;;;;;;50.45;33.00;;;11.50;99.90;;;;;;5047217;28;20051;-63
2022/10/13 07:42:21;;;;;;;50.58;32.42;;;11.50;99.90;;;;;;5048181;28;20147;-64
2022/10/13 07:44:47;;;;;;;52.03;33.05;;;11.50;99.90;;;;;;5031009;28;20076;-64
2022/10/13 07:47:12;;;;;;;52.00;32.80;;;11.60;99.90;;;;;;5046252;28;20036;-64
2022/10/13 07:49:38;;;;;;;50.97;32.75;;;11.60;99.90;;;;;;5048139;28;20486;-64
2022/10/13 07:52:04;;;;;;;51.45;33.55;;;11.60;99.90;;;;;;5048794;28;21078;-64
2022/10/13 07:54:29;;;;;;;56.35;35.97;;;11.60;99.90;;;;;;5050736;28;20401;-64
2022/10/13 07:56:55;;;;;;;54.58;37.08;;;11.70;99.90;;;;;;5050160;28;20490;-64
2022/10/13 07:59:21;;;;;;;52.85;35.45;;;11.70;99.90;;;;;;5050464;28;20044;-64
2022/10/13 08:01:47;;;;;;;59.08;35.58;;;11.70;99.90;;;;;;5049276;28;20044;-64
2022/10/13 08:04:13;;;;;;;63.33;37.83;;;11.70;99.90;;;;;;5050049;28;20037;-64
2022/10/13 08:06:38;;;;;;;56.65;35.58;;;11.70;99.90;;;;;;5051333;28;20048;-64
2022/10/13 08:09:04;;;;;;;58.40;36.30;;;11.70;99.90;;;;;;5050132;28;20082;-63
2022/10/13 08:11:30;;;;;;;54.10;35.08;;;11.80;99.90;;;;;;5049071;28;20125;-63
2022/10/13 08:13:59;;;;;;;61.28;39.13;;;11.80;99.90;;;;;;5048956;28;20045;-63
2022/10/13 08:16:26;;;;;;;59.58;38.05;;;11.80;99.90;;;;;;5049901;28;20124;-63
2022/10/13 08:18:52;;;;;;;62.40;37.00;;;11.90;99.90;;;;;;5050068;28;20041;-64
2022/10/13 08:21:21;;;;;;;60.08;39.22;;;11.90;99.90;;;;;;5047458;28;20053;-64
2022/10/13 08:23:47;;;;;;;57.38;37.17;;;11.90;99.90;;;;;;5049322;28;20044;-64
2022/10/13 08:26:23;;;;;;;60.60;38.28;;;12.00;99.90;;;;;;5050414;28;20064;-64
2022/10/13 08:28:49;;;;;;;58.13;37.67;;;12.00;99.90;;;;;;5049710;28;20045;-64
2022/10/13 08:31:15;;;;;;;49.92;35.22;;;12.10;99.90;;;;;;5049254;28;20075;-64
2022/10/13 08:33:41;;;;;;;63.45;41.15;;;12.10;99.90;;;;;;5049986;28;20044;-64
2022/10/13 08:36:07;;;;;;;68.45;41.70;;;12.10;99.90;;;;;;5049419;28;20056;-64
2022/10/13 08:38:33;;;;;;;55.08;37.85;;;12.20;99.90;;;;;;5030431;28;20045;-64
2022/10/13 08:40:59;;;;;;;63.40;41.00;;;12.20;99.90;;;;;;5044945;28;20082;-64
2022/10/13 08:43:25;;;;;;;73.03;44.45;;;12.30;99.90;;;;;;5066752;28;20045;-63
2022/10/13 08:45:57;;;;;;;47.90;34.00;;;12.30;99.90;;;;;;5052752;28;20044;-64
2022/10/13 08:48:36;;;;;;;66.72;39.65;;;12.40;99.90;;;;;;5052326;28;20051;-64
2022/10/13 08:51:06;;;;;;;55.75;37.97;;;12.40;99.90;;;;;;5052105;28;20037;-64
2022/10/13 08:53:39;;;;;;;58.75;37.13;;;12.50;99.90;;;;;;5053272;28;20049;-65
2022/10/13 08:56:17;;;;;;;48.42;33.58;;;12.50;99.90;;;;;;5053448;28;20044;-65
2022/10/13 08:58:43;;;;;;;52.40;36.75;;;12.60;99.90;;;;;;5052542;28;20083;-64
2022/10/13 09:01:19;;;;;;;58.95;36.65;;;12.60;99.90;;;;;;5052713;28;20555;-66
2022/10/13 09:03:53;;;;;;;58.03;36.47;;;12.70;99.90;;;;;;5052978;28;20115;-64
2022/10/13 09:06:30;;;;;;;50.83;33.50;;;12.70;99.90;;;;;;5053442;28;20041;-65
2022/10/13 09:09:04;;;;;;;61.33;38.05;;;12.70;99.90;;;;;;5053425;28;20485;-65
2022/10/13 09:11:34;;;;;;;52.83;33.90;;;12.80;99.90;;;;;;5051427;28;20194;-65
2022/10/13 09:14:03;;;;;;;50.95;34.15;;;12.80;99.90;;;;;;5042943;28;20524;-64
2022/10/13 09:16:39;;;;;;;54.72;34.03;;;12.80;99.90;;;;;;5050015;28;20033;-61
2022/10/13 09:19:12;;;;;;;55.80;35.75;;;12.90;99.90;;;;;;5049171;28;20033;-63
2022/10/13 09:21:38;;;;;;;45.85;33.33;;;12.90;99.90;;;;;;5050420;28;20398;-61
2022/10/13 09:24:12;;;;;;;48.78;32.15;;;13.00;99.90;;;;;;5049433;28;20041;-62
2022/10/13 09:26:38;;;;;;;49.15;33.97;;;13.00;99.90;;;;;;5048496;28;20509;-62
2022/10/13 09:29:24;;;;;;;53.35;33.40;;;13.00;99.90;;;;;;5031904;28;20044;-62
2022/10/13 09:31:50;;;;;;;53.78;33.28;;;13.10;99.90;;;;;;5049802;28;20056;-62
2022/10/13 09:34:19;;;;;;;47.92;31.73;;;13.10;99.90;;;;;;5048603;28;20044;-62
2022/10/13 09:36:59;;;;;;;43.83;28.98;;;13.20;99.90;;;;;;5048281;28;20077;-62
2022/10/13 09:39:26;;;;;;;42.17;29.25;;;13.20;99.90;;;;;;5048439;28;20076;-62
2022/10/13 09:42:07;;;;;;;43.20;30.50;;;13.20;99.90;;;;;;5048366;28;20128;-62
2022/10/13 09:44:33;;;;;;;41.35;28.15;;;13.20;99.90;;;;;;5048286;28;20148;-62
2022/10/13 09:47:01;;;;;;;41.45;27.60;;;13.30;99.90;;;;;;5047294;28;20123;-63
2022/10/13 09:49:43;;;;;;;41.60;29.25;;;13.30;99.90;;;;;;5047331;28;20111;-62
2022/10/13 09:52:11;;;;;;;47.03;29.48;;;13.30;99.90;;;;;;5046768;28;20033;-62
2022/10/13 09:54:54;;;;;;;43.22;28.48;;;13.30;99.90;;;;;;5048671;28;20486;-62
2022/10/13 09:57:35;;;;;;;38.47;25.88;;;13.30;99.90;;;;;;5048423;28;20037;-62
2022/10/13 10:00:23;;;;;;;43.65;29.15;;;13.40;99.90;;;;;;5048960;28;20076;-62
2022/10/13 10:03:27;;;;;;;40.75;26.00;;;13.40;99.90;;;;;;5048363;28;20037;-62
2022/10/13 10:05:55;;;;;;;39.67;27.88;;;13.40;99.90;;;;;;4990809;28;20429;-62
2022/10/13 10:08:45;;;;;;;38.22;26.60;;;13.50;99.90;;;;;;5032005;28;20053;-62
2022/10/13 10:11:17;;;;;;;42.00;28.45;;;13.50;99.90;;;;;;5028986;28;20049;-62
2022/10/13 10:13:43;;;;;;;40.17;27.55;;;13.60;99.90;;;;;;5047922;28;20472;-62
2022/10/13 10:16:30;;;;;;;38.05;26.10;;;13.70;99.90;;;;;;5048003;28;20132;-62
2022/10/13 10:19:04;;;;;;;39.25;27.35;;;13.70;99.90;;;;;;5051045;28;20041;-62
2022/10/13 10:21:42;;;;;;;33.58;23.80;;;13.70;99.90;;;;;;5051865;28;20036;-61
2022/10/13 10:24:52;;;;;;;34.80;25.15;;;13.80;99.90;;;;;;5052107;28;20081;-61
2022/10/13 10:27:25;;;;;;;36.47;26.33;;;13.90;99.90;;;;;;5050871;28;20071;-61
2022/10/13 10:29:57;;;;;;;30.65;23.83;;;14.00;99.90;;;;;;5051701;28;20037;-62
2022/10/13 10:32:44;;;;;;;34.33;25.60;;;14.00;99.90;;;;;;5052246;28;20080;-61
2022/10/13 10:35:17;;;;;;;33.85;25.17;;;14.10;99.90;;;;;;5050928;28;20076;-61
2022/10/13 10:37:52;;;;;;;31.20;23.80;;;14.00;99.90;;;;;;5050834;28;20051;-61
2022/10/13 10:40:31;;;;;;;;;;;14.10;99.90;;;;;;5052411;28;20531;-61
2022/10/13 10:43:18;;;;;;;33.90;26.15;;;14.10;99.90;;;;;;5050244;28;19917;-61
2022/10/13 10:45:46;;;;;;;32.88;25.08;;;14.10;99.90;;;;;;5051314;28;20052;-61
2022/10/13 10:48:20;;;;;;;38.33;28.17;;;14.10;99.90;;;;;;5052009;28;20120;-61
2022/10/13 10:50:47;;;;;;;34.47;24.90;;;14.10;99.90;;;;;;5033505;28;20230;-61
2022/10/13 10:53:41;;;;;;;39.15;26.52;;;14.10;99.90;;;;;;5050648;28;20041;-61
2022/10/13 10:56:35;;;;;;;32.72;24.65;;;14.20;99.90;;;;;;5050603;28;20072;-61
2022/10/13 10:59:23;;;;;;;31.45;21.90;;;14.20;99.90;;;;;;5084161;28;20490;-61
2022/10/13 11:02:02;;;;;;;32.28;25.42;;;14.20;99.90;;;;;;5051917;28;20124;-61
2022/10/13 11:04:41;;;;;;;32.05;24.15;;;14.20;99.90;;;;;;5051190;28;20112;-61
2022/10/13 11:07:23;;;;;;;25.73;20.13;;;14.30;99.90;;;;;;5050554;28;20566;-61
2022/10/13 11:09:51;;;;;;;26.88;18.85;;;14.30;99.90;;;;;;5050465;28;20389;-61
2022/10/13 11:12:20;;;;;;;32.53;23.27;;;14.30;99.90;;;;;;5033343;28;20041;-61
2022/10/13 11:15:04;;;;;;;34.38;23.67;;;14.40;99.90;;;;;;5050434;28;20076;-61
2022/10/13 11:17:36;;;;;;;32.73;23.07;;;14.40;99.90;;;;;;5051477;28;20041;-61
2022/10/13 11:20:25;;;;;;;22.92;18.55;;;14.50;99.90;;;;;;5050248;28;20294;-61
2022/10/13 11:22:56;;;;;;;27.60;19.15;;;14.50;99.90;;;;;;5051524;28;20037;-62
2022/10/13 11:25:47;;;;;;;26.77;17.65;;;14.60;99.90;;;;;;5049450;28;20057;-61
2022/10/13 11:28:22;;;;;;;23.65;18.10;;;14.60;99.90;;;;;;5037583;28;20504;-61
2022/10/13 11:30:49;;;;;;;;;;;14.70;99.90;;;;;;5054422;28;20049;-61
2022/10/13 11:33:33;;;;;;;21.55;16.15;;;14.70;99.90;;;;;;5053898;28;20277;-61
2022/10/13 11:36:34;;;;;;;17.95;13.55;;;14.70;99.90;;;;;;5054235;28;20059;-62
2022/10/13 11:39:21;;;;;;;18.10;13.32;;;14.70;99.90;;;;;;5055099;28;20494;-62
2022/10/13 11:42:08;;;;;;;17.77;12.35;;;14.70;99.90;;;;;;5053238;28;20062;-61
2022/10/13 11:44:51;;;;;;;20.42;13.82;;;14.70;99.90;;;;;;5052731;28;20069;-62
2022/10/13 11:47:33;;;;;;;16.10;13.82;;;14.80;99.90;;;;;;5050233;28;20036;-62
2022/10/13 11:50:05;;;;;;;18.67;12.82;;;14.80;99.90;;;;;;5084196;28;20533;-61
2022/10/13 11:52:53;;;;;;;19.27;13.07;;;14.70;99.90;;;;;;5051567;28;20047;-61
2022/10/13 11:55:52;;;;;;;14.95;10.00;;;14.80;99.90;;;;;;5049840;28;20041;-62
2022/10/13 11:58:24;;;;;;;16.20;10.65;;;14.70;99.90;;;;;;5080470;28;20179;-61
2022/10/13 12:00:59;;;;;;;16.10;11.20;;;14.70;99.90;;;;;;5036640;28;20061;-61
2022/10/13 12:03:31;;;;;;;17.05;7.78;;;14.80;99.90;;;;;;5047647;28;20073;-62
2022/10/13 12:06:02;;;;;;;23.98;15.35;;;14.70;99.90;;;;;;5031568;28;20490;-61
2022/10/13 12:08:29;;;;;;;17.45;11.95;;;14.80;99.90;;;;;;5030875;28;20049;-62
2022/10/13 12:10:57;;;;;;;11.57;7.40;;;14.80;99.90;;;;;;5030873;28;20052;-61
2022/10/13 12:13:29;;;;;;;15.95;8.00;;;14.80;99.90;;;;;;5048740;28;20064;-62
2022/10/13 12:16:02;;;;;;;10.90;6.50;;;14.80;99.90;;;;;;5050115;28;20397;-62
2022/10/13 12:18:34;;;;;;;13.18;7.22;;;14.90;99.90;;;;;;5050523;28;20136;-62
2022/10/13 12:21:07;;;;;;;13.77;4.88;;;14.90;99.90;;;;;;5050477;28;20041;-61
2022/10/13 12:23:33;;;;;;;13.48;5.00;;;14.90;99.90;;;;;;5048986;28;20033;-61
2022/10/13 12:25:59;;;;;;;11.38;6.18;;;14.90;99.90;;;;;;5052178;28;20067;-61
2022/10/13 12:28:44;;;;;;;8.98;3.95;;;14.90;99.90;;;;;;5047831;28;20512;-62
2022/10/13 12:31:20;;;;;;;13.65;4.20;;;15.00;99.90;;;;;;5050576;28;20049;-62
2022/10/13 12:33:52;;;;;;;19.75;11.90;;;15.00;99.90;;;;;;5050821;28;20124;-62
2022/10/13 12:36:21;;;;;;;13.52;8.50;;;15.00;99.90;;;;;;5051006;28;20040;-61
2022/10/13 12:38:53;;;;;;;13.10;7.53;;;15.00;99.90;;;;;;5048834;28;20045;-62
2022/10/13 12:41:31;;;;;;;10.75;7.18;;;15.00;99.90;;;;;;5033117;28;20044;-61
2022/10/13 12:43:57;;;;;;;14.23;4.97;;;15.00;99.90;;;;;;5032891;28;20060;-61
2022/10/13 12:46:44;;;;;;;6.55;3.65;;;15.00;99.90;;;;;;5048775;28;20041;-61
2022/10/13 12:49:12;;;;;;;11.02;5.82;;;15.00;99.90;;;;;;5043909;28;20456;-62